Time;durP1;ratioP1;P1;durP2;ratioP2;P2;SDS_P1;SDS_P2;PMS_P1;PMS_P2;Temp;Humidity;BMP_temperature;BMP_pressure;BME280_temperature;BME280_humidity;BME280_pressure;Samples;Min_cycle;Max_cycle;Signal;HPM_P1;HPM_P2
2021/06/27 00:01:31;;;;;;;14.52;1.90;;;;;;;16.03;76.75;96321.59;5114528;28;20024;-60
2021/06/27 00:03:56;;;;;;;10.55;1.85;;;;;;;16.11;76.26;96323.75;5113892;28;20032;-62
2021/06/27 00:06:22;;;;;;;8.10;1.65;;;;;;;16.10;75.97;96335.28;5114714;28;20042;-62
2021/06/27 00:08:48;;;;;;;15.32;2.85;;;;;;;16.06;76.59;96334.59;5114556;28;20026;-61
2021/06/27 00:11:15;;;;;;;7.75;1.48;;;;;;;16.10;76.43;96335.28;5114346;28;20476;-59
2021/06/27 00:13:42;;;;;;;7.07;1.17;;;;;;;16.04;76.06;96342.63;5113929;28;20035;-62
2021/06/27 00:16:09;;;;;;;7.43;1.20;;;;;;;15.99;75.74;96339.44;5113883;28;20545;-60
2021/06/27 00:18:35;;;;;;;5.40;1.85;;;;;;;15.84;76.83;96335.09;5113494;28;20413;-60
2021/06/27 00:21:06;;;;;;;10.18;2.40;;;;;;;15.83;76.88;96336.88;5114100;28;20067;-61
2021/06/27 00:23:34;;;;;;;3.65;1.42;;;;;;;15.90;76.81;96340.81;5113801;28;20028;-60
2021/06/27 00:26:01;;;;;;;5.88;1.55;;;;;;;15.95;76.32;96335.25;5113775;28;20036;-62
2021/06/27 00:28:27;;;;;;;13.77;1.48;;;;;;;15.91;75.38;96333.75;5113838;28;20023;-62
2021/06/27 00:30:54;;;;;;;8.57;2.13;;;;;;;15.69;76.27;96324.56;5114268;28;20538;-62
2021/06/27 00:33:23;;;;;;;8.40;2.03;;;;;;;15.56;76.33;96321.00;5113950;28;20027;-62
2021/06/27 00:35:50;;;;;;;8.13;1.85;;;;;;;15.58;76.94;96317.31;5113577;28;20023;-61
2021/06/27 00:38:17;;;;;;;8.80;1.85;;;;;;;15.63;76.52;96309.94;5113863;28;20031;-61
2021/06/27 00:40:43;;;;;;;5.95;2.25;;;;;;;15.64;76.67;96302.88;5113804;28;20393;-59
2021/06/27 00:43:08;;;;;;;4.65;1.63;;;;;;;15.63;77.10;96304.66;5113341;28;20019;-60
2021/06/27 00:45:36;;;;;;;7.53;1.90;;;;;;;15.62;77.56;96296.88;5100758;28;20542;-61
2021/06/27 00:48:03;;;;;;;6.53;2.08;;;;;;;15.65;77.64;96294.03;5113358;28;20023;-60
2021/06/27 00:50:34;;;;;;;4.30;2.05;;;;;;;15.68;77.41;96301.75;5113658;28;20020;-63
2021/06/27 00:53:00;;;;;;;9.07;1.75;;;;;;;15.78;77.77;96302.03;5109115;28;20122;-63
2021/06/27 00:55:26;;;;;;;5.75;2.20;;;;;;;15.74;76.99;96300.53;5113506;28;20161;-63
2021/06/27 00:57:53;;;;;;;4.53;2.17;;;;;;;15.77;76.63;96292.41;5113336;28;20024;-61
2021/06/27 01:00:22;;;;;;;6.43;3.55;;;;;;;15.78;75.76;96296.75;5113665;28;20108;-62
2021/06/27 01:02:48;;;;;;;3.80;1.23;;;;;;;15.79;75.97;96293.19;5113922;27;20011;-61
2021/06/27 01:05:17;;;;;;;7.78;2.10;;;;;;;15.74;75.68;96288.19;5113717;28;20411;-60
2021/06/27 01:07:43;;;;;;;5.50;1.60;;;;;;;15.69;76.39;96300.84;5112876;28;20080;-63
2021/06/27 01:10:09;;;;;;;7.85;2.35;;;;;;;15.66;76.62;96306.28;5113290;28;20024;-63
2021/06/27 01:12:35;;;;;;;4.50;1.77;;;;;;;15.66;76.59;96306.28;5113565;28;20016;-61
2021/06/27 01:15:02;;;;;;;8.95;2.15;;;;;;;15.63;76.43;96304.66;5113299;28;20465;-60
2021/06/27 01:17:28;;;;;;;8.27;2.03;;;;;;;15.62;75.60;96305.63;5113690;28;20030;-60
2021/06/27 01:19:54;;;;;;;11.88;2.05;;;;;;;15.50;76.14;96294.06;5113074;28;20035;-61
2021/06/27 01:22:19;;;;;;;4.82;1.50;;;;;;;15.39;77.10;96289.44;5112853;28;20024;-62
2021/06/27 01:24:45;;;;;;;11.25;2.33;;;;;;;15.24;79.22;96285.97;5113178;28;20554;-59
2021/06/27 01:27:10;;;;;;;4.88;1.90;;;;;;;15.33;78.01;96287.19;5113503;28;20461;-61
2021/06/27 01:29:36;;;;;;;5.28;1.70;;;;;;;15.35;77.29;96281.84;5112726;28;20039;-60
2021/06/27 01:32:03;;;;;;;12.73;2.10;;;;;;;15.25;78.46;96289.44;5117442;28;20035;-60
2021/06/27 01:34:28;;;;;;;5.38;1.67;;;;;;;15.27;78.35;96296.31;5117525;28;20073;-61
2021/06/27 01:36:54;;;;;;;3.63;2.00;;;;;;;15.29;78.26;96289.16;5117474;28;20027;-62
2021/06/27 01:39:19;;;;;;;7.97;1.55;;;;;;;15.33;78.30;96288.97;5116913;28;20477;-62
2021/06/27 01:41:52;;;;;;;4.53;1.92;;;;;;;15.35;77.79;96287.94;5117518;28;20027;-61
2021/06/27 01:44:18;;;;;;;9.18;1.42;;;;;;;15.42;77.45;96291.06;5116945;28;20035;-60
2021/06/27 01:46:45;;;;;;;8.15;1.77;;;;;;;15.45;77.51;96282.97;5117162;28;20028;-59
2021/06/27 01:49:12;;;;;;;8.00;1.55;;;;;;;15.45;77.13;96285.59;5117079;27;20036;-59
2021/06/27 01:51:40;;;;;;;11.60;1.85;;;;;;;15.50;76.55;96285.31;5116863;28;20028;-59
2021/06/27 01:54:07;;;;;;;7.53;1.52;;;;;;;15.49;76.72;96289.72;5117187;28;20528;-61
2021/06/27 01:56:34;;;;;;;5.13;1.60;;;;;;;15.51;76.80;96281.72;5117097;28;20034;-61
2021/06/27 01:59:02;;;;;;;6.60;1.65;;;;;;;15.46;76.59;96286.44;5116732;28;20465;-60
2021/06/27 02:01:35;;;;;;;5.28;1.63;;;;;;;15.48;76.71;96289.81;5116838;28;20039;-59
2021/06/27 02:04:01;;;;;;;7.40;1.55;;;;;;;15.47;76.82;96288.13;5116194;28;20423;-61
2021/06/27 02:06:28;;;;;;;4.55;1.88;;;;;;;15.47;76.25;96285.50;5117130;28;20055;-59
2021/06/27 02:08:55;;;;;;;1.38;1.15;;;;;;;15.44;76.68;96285.69;5116889;28;20031;-61
2021/06/27 02:11:23;;;;;;;22.83;2.88;;;;;;;15.42;77.04;96291.06;5116426;28;20028;-59
2021/06/27 02:13:50;;;;;;;4.82;1.55;;;;;;;15.34;77.68;96288.88;5115574;27;20036;-60
2021/06/27 02:16:16;;;;;;;3.60;1.50;;;;;;;15.38;77.23;96292.19;5116233;28;20041;-60
2021/06/27 02:18:45;;;;;;;10.77;2.00;;;;;;;15.35;77.43;96295.00;5116353;28;20365;-62
2021/06/27 02:21:13;;;;;;;7.80;1.38;;;;;;;15.35;77.57;96290.56;5116077;28;20067;-61
2021/06/27 02:23:40;;;;;;;11.80;1.42;;;;;;;15.41;77.18;96291.97;5113224;28;20023;-60
2021/06/27 02:26:06;;;;;;;5.68;1.48;;;;;;;15.41;76.53;96294.59;5116424;28;20110;-62
2021/06/27 02:28:32;;;;;;;10.82;1.70;;;;;;;15.34;77.03;96288.88;5116686;28;20410;-59
2021/06/27 02:31:00;;;;;;;4.70;1.50;;;;;;;15.38;77.06;96289.56;5115562;28;20469;-60
2021/06/27 02:33:27;;;;;;;10.80;1.60;;;;;;;15.32;77.02;96292.56;5114165;28;20358;-61
2021/06/27 02:35:53;;;;;;;8.02;1.83;;;;;;;15.23;77.19;96286.91;5116488;28;20020;-60
2021/06/27 02:38:19;;;;;;;3.70;1.60;;;;;;;15.25;77.38;96292.94;5116382;28;20023;-62
2021/06/27 02:40:45;;;;;;;6.25;1.63;;;;;;;15.20;77.72;96286.25;5115023;28;20030;-61
2021/06/27 02:43:13;;;;;;;7.32;2.15;;;;;;;15.15;77.67;96279.47;5114244;28;20015;-62
2021/06/27 02:45:39;;;;;;;8.55;2.13;;;;;;;15.17;78.26;96276.72;5114711;28;20020;-61
2021/06/27 02:48:08;;;;;;;5.72;1.23;;;;;;;15.25;78.07;96282.41;5116168;28;20024;-60
2021/06/27 02:50:36;;;;;;;5.60;1.92;;;;;;;15.31;78.24;96282.94;5115894;28;20019;-61
2021/06/27 02:53:02;;;;;;;7.93;1.38;;;;;;;15.38;78.16;96284.28;5115826;28;20105;-62
2021/06/27 02:55:28;;;;;;;4.85;1.77;;;;;;;15.42;77.91;96288.41;5116104;28;20027;-62
2021/06/27 02:57:54;;;;;;;4.22;1.52;;;;;;;15.45;77.81;96295.28;5115581;28;20096;-61
2021/06/27 03:00:20;;;;;;;8.63;2.30;;;;;;;15.43;77.44;96289.25;5115693;28;20095;-61
2021/06/27 03:02:46;;;;;;;4.80;1.45;;;;;;;15.48;77.46;96293.31;5115425;28;20050;-60
2021/06/27 03:05:14;;;;;;;7.10;2.20;;;;;;;15.53;77.53;96293.00;5116024;28;20027;-60
2021/06/27 03:07:42;;;;;;;7.97;1.50;;;;;;;15.58;77.28;96288.31;5115267;28;20418;-60
2021/06/27 03:10:11;;;;;;;9.05;1.85;;;;;;;15.65;77.53;96286.13;5115609;28;20031;-60
2021/06/27 03:12:38;;;;;;;19.17;2.20;;;;;;;15.67;77.45;96286.88;5115416;28;20491;-61
2021/06/27 03:15:05;;;;;;;7.47;1.27;;;;;;;15.70;77.33;96277.94;5114958;27;20035;-62
2021/06/27 03:17:31;;;;;;;5.40;1.58;;;;;;;15.71;77.50;96283.09;5115750;28;20058;-61
2021/06/27 03:19:57;;;;;;;12.18;1.67;;;;;;;15.79;77.62;96287.91;5115272;28;20099;-62
2021/06/27 03:22:22;;;;;;;7.55;1.55;;;;;;;15.79;77.58;96280.84;5114776;28;20431;-61
2021/06/27 03:24:48;;;;;;;4.75;1.92;;;;;;;15.83;77.55;96286.75;5114744;28;20054;-62
2021/06/27 03:27:13;;;;;;;7.40;1.88;;;;;;;15.99;77.64;96289.31;5115463;28;20026;-62
2021/06/27 03:29:39;;;;;;;7.45;1.40;;;;;;;16.23;77.62;96275.50;5115120;28;20024;-60
2021/06/27 03:32:05;;;;;;;2.78;1.55;;;;;;;16.52;76.52;96277.13;5115467;28;20464;-63
2021/06/27 03:34:30;;;;;;;6.85;1.40;;;;;;;16.86;75.44;96282.78;5114992;28;20381;-59
2021/06/27 03:36:56;;;;;;;7.22;1.10;;;;;;;17.13;74.12;96276.59;5115214;28;20027;-61
2021/06/27 03:39:23;;;;;;;6.53;1.40;;;;;;;17.44;73.73;96276.28;5114874;28;20059;-62
2021/06/27 03:41:52;;;;;;;9.32;1.55;;;;;;;17.72;73.00;96278.75;5115138;28;20357;-61
2021/06/27 03:44:18;;;;;;;11.40;1.75;;;;;;;18.00;72.29;96274.97;5114304;28;20530;-61
2021/06/27 03:46:44;;;;;;;8.50;1.77;;;;;;;18.30;71.77;96263.13;5114556;28;20050;-62
2021/06/27 03:49:10;;;;;;;2.28;1.20;;;;;;;18.66;71.39;96260.50;5114816;28;20465;-62
2021/06/27 03:51:35;;;;;;;1.70;0.95;;;;;;;18.99;69.99;96255.38;5114810;28;20030;-63
2021/06/27 03:54:01;;;;;;;7.60;1.40;;;;;;;19.35;68.82;96257.16;5113437;28;20480;-61
2021/06/27 03:56:27;;;;;;;4.75;1.40;;;;;;;19.66;68.17;96266.16;5114245;28;20030;-63
2021/06/27 03:58:52;;;;;;;10.85;1.58;;;;;;;19.95;67.25;96264.81;5114721;28;20027;-64
2021/06/27 04:01:18;;;;;;;6.93;1.50;;;;;;;20.27;66.40;96261.38;5113604;28;20016;-64
2021/06/27 04:03:44;;;;;;;12.50;1.45;;;;;;;20.54;65.87;96265.41;5113773;28;20028;-61
2021/06/27 04:06:09;;;;;;;6.45;1.40;;;;;;;20.86;65.80;96263.63;5114415;28;20024;-61
2021/06/27 04:08:35;;;;;;;6.05;1.38;;;;;;;21.19;64.82;96269.75;5114496;28;20496;-64
2021/06/27 04:11:01;;;;;;;9.10;1.88;;;;;;;21.59;65.15;96275.28;5113228;28;20016;-61
2021/06/27 04:13:28;;;;;;;7.13;1.88;;;;;;;21.96;64.71;96265.88;5114198;28;20024;-64
2021/06/27 04:15:55;;;;;;;7.18;1.50;;;;;;;22.37;63.68;96276.47;5114100;28;20027;-62
2021/06/27 04:18:21;;;;;;;3.15;1.42;;;;;;;22.75;62.66;96273.97;5114168;28;20031;-62
2021/06/27 04:20:47;;;;;;;8.85;1.70;;;;;;;23.12;61.32;96282.19;5114187;28;20489;-64
2021/06/27 04:23:13;;;;;;;6.25;1.50;;;;;;;23.44;59.98;96281.84;5114339;28;20081;-65
2021/06/27 04:25:39;;;;;;;4.65;1.35;;;;;;;23.70;59.96;96283.88;5113682;28;20040;-63
2021/06/27 04:28:06;;;;;;;4.78;1.33;;;;;;;23.98;60.27;96288.34;5113203;28;20100;-60
2021/06/27 04:30:35;;;;;;;5.70;1.70;;;;;;;24.22;58.43;96278.97;5114062;28;20549;-61
2021/06/27 04:33:02;;;;;;;7.03;1.60;;;;;;;24.62;59.54;96292.88;5112442;28;20463;-61
2021/06/27 04:35:28;;;;;;;4.80;1.17;;;;;;;24.97;58.73;96287.69;5113861;28;20072;-62
2021/06/27 04:37:54;;;;;;;7.78;2.03;;;;;;;25.35;56.81;96292.81;5113399;28;20055;-65
2021/06/27 04:40:19;;;;;;;7.15;1.58;;;;;;;25.59;55.97;96292.13;5113983;28;20020;-62
2021/06/27 04:42:45;;;;;;;4.55;1.23;;;;;;;25.85;55.70;96298.44;5113746;28;20048;-65
2021/06/27 04:45:11;;;;;;;10.80;1.55;;;;;;;26.17;55.72;96302.25;5113701;28;20038;-66
2021/06/27 04:47:39;;;;;;;6.75;1.80;;;;;;;26.48;54.53;96296.31;5113198;28;20030;-62
2021/06/27 04:50:06;;;;;;;5.20;1.48;;;;;;;26.82;54.76;96301.72;5113736;28;20427;-62
2021/06/27 04:52:34;;;;;;;10.13;1.85;;;;;;;27.07;55.00;96296.38;5113695;28;20401;-62
2021/06/27 04:55:00;;;;;;;8.02;1.52;;;;;;;27.35;54.13;96298.69;5113395;28;20418;-63
2021/06/27 04:57:25;;;;;;;7.90;1.50;;;;;;;27.59;53.64;96297.81;5113434;28;20100;-62
2021/06/27 04:59:51;;;;;;;4.13;1.40;;;;;;;27.81;52.95;96299.97;5113779;28;20063;-62
2021/06/27 05:02:16;;;;;;;8.43;1.75;;;;;;;27.97;53.25;96297.22;5113356;28;20020;-63
2021/06/27 05:04:42;;;;;;;9.18;1.48;;;;;;;28.16;52.54;96303.16;5113467;28;20023;-65
2021/06/27 05:07:08;;;;;;;7.32;1.35;;;;;;;28.41;51.60;96307.59;5113308;28;20483;-62
2021/06/27 05:09:33;;;;;;;9.63;1.65;;;;;;;28.52;50.94;96301.81;5113610;28;20031;-62
2021/06/27 05:11:59;;;;;;;5.43;1.88;;;;;;;28.47;51.41;96315.78;5112199;28;20427;-62
2021/06/27 05:14:25;;;;;;;6.70;1.30;;;;;;;28.72;49.92;96312.94;5108913;28;20116;-66
2021/06/27 05:16:52;;;;;;;11.98;1.52;;;;;;;28.73;48.36;96309.25;5092820;28;20099;-63
2021/06/27 05:19:17;;;;;;;10.40;1.80;;;;;;;28.97;50.96;96328.09;5092433;28;20035;-63
2021/06/27 05:21:44;;;;;;;12.27;1.40;;;;;;;29.21;49.28;96336.97;5093166;28;20144;-64
2021/06/27 05:24:10;;;;;;;4.47;1.38;;;;;;;29.41;48.07;96342.72;5092583;28;20075;-66
2021/06/27 05:26:37;;;;;;;5.47;1.42;;;;;;;29.59;46.99;96349.63;5092313;28;20105;-64
2021/06/27 05:29:03;;;;;;;6.07;1.42;;;;;;;29.77;46.24;96357.38;5092575;28;20032;-64
2021/06/27 05:31:32;;;;;;;5.43;1.70;;;;;;;29.99;47.45;96354.75;5092728;28;20016;-67
2021/06/27 05:33:58;;;;;;;7.40;1.50;;;;;;;30.08;46.54;96361.72;5092581;28;20036;-66
2021/06/27 05:36:23;;;;;;;4.97;1.63;;;;;;;30.10;48.80;96358.84;5092467;28;20026;-64
2021/06/27 05:38:49;;;;;;;7.00;1.50;;;;;;;30.24;48.08;96358.03;5092598;28;20119;-65
2021/06/27 05:41:14;;;;;;;6.53;1.00;;;;;;;30.42;48.62;96367.56;5093282;28;20020;-64
2021/06/27 05:43:40;;;;;;;8.50;1.88;;;;;;;30.32;47.39;96365.19;5092983;28;20024;-64
2021/06/27 05:46:05;;;;;;;5.18;1.67;;;;;;;30.52;45.94;96369.97;5092773;28;20024;-64
2021/06/27 05:48:31;;;;;;;7.53;2.33;;;;;;;30.57;44.44;96367.53;5092656;28;20489;-66
2021/06/27 05:50:57;;;;;;;7.50;1.77;;;;;;;30.72;43.51;96372.03;5092944;28;20043;-61
2021/06/27 05:53:22;;;;;;;6.53;1.60;;;;;;;30.84;42.57;96375.97;5092961;28;20043;-63
2021/06/27 05:55:48;;;;;;;6.20;1.67;;;;;;;30.91;42.11;96370.59;5092945;28;20539;-63
2021/06/27 05:58:13;;;;;;;2.40;1.40;;;;;;;30.99;42.99;96378.59;5092196;28;20024;-64
2021/06/27 06:00:39;;;;;;;6.75;1.65;;;;;;;31.25;43.46;96376.34;5092846;28;20354;-65
2021/06/27 06:03:05;;;;;;;5.25;1.40;;;;;;;31.52;43.29;96368.50;5092727;28;20024;-65
2021/06/27 06:05:31;;;;;;;4.18;1.38;;;;;;;31.68;41.85;96380.03;5092568;28;20024;-62
2021/06/27 06:07:56;;;;;;;5.97;1.48;;;;;;;31.85;43.67;96380.56;5092585;28;20385;-64
2021/06/27 06:10:22;;;;;;;10.00;1.80;;;;;;;31.83;40.70;96377.22;5092731;28;20038;-65
2021/06/27 06:12:48;;;;;;;4.13;1.33;;;;;;;31.84;39.24;96373.50;5092854;28;20017;-65
2021/06/27 06:15:14;;;;;;;7.57;1.77;;;;;;;31.77;39.63;96368.88;5092761;28;20423;-65
2021/06/27 06:17:39;;;;;;;6.63;1.95;;;;;;;31.77;40.42;96371.59;5103646;28;20535;-63
2021/06/27 06:20:06;;;;;;;5.50;1.63;;;;;;;31.93;40.00;96387.72;5076213;28;20029;-65
2021/06/27 06:22:32;;;;;;;10.20;1.70;;;;;;;32.06;39.61;96384.25;5076164;28;20021;-65
2021/06/27 06:24:58;;;;;;;9.55;1.70;;;;;;;32.09;39.42;96376.59;5075903;28;20045;-65
2021/06/27 06:27:24;;;;;;;7.97;1.77;;;;;;;32.26;40.60;96371.66;5090111;28;20115;-65
2021/06/27 06:29:50;;;;;;;5.85;1.98;;;;;;;32.49;41.96;96367.00;5096248;28;20610;-66
2021/06/27 06:32:15;;;;;;;10.63;2.05;;;;;;;32.59;41.49;96364.75;5096412;28;20037;-61
2021/06/27 06:34:41;;;;;;;9.23;1.92;;;;;;;32.79;40.01;96369.38;5096129;28;20078;-67
2021/06/27 06:37:07;;;;;;;6.45;1.88;;;;;;;33.04;42.43;96371.53;5095837;28;20123;-64
2021/06/27 06:39:33;;;;;;;6.65;2.00;;;;;;;33.03;38.58;96369.84;5095895;28;20028;-63
2021/06/27 06:41:58;;;;;;;8.07;2.03;;;;;;;32.99;39.53;96363.19;5096150;28;20481;-63
2021/06/27 06:44:24;;;;;;;7.53;1.70;;;;;;;33.17;40.03;96372.59;5096212;28;20494;-65
2021/06/27 06:46:49;;;;;;;6.38;1.67;;;;;;;33.39;41.28;96368.66;5094427;28;20031;-65
2021/06/27 06:49:16;;;;;;;6.80;2.13;;;;;;;33.56;40.86;96373.66;5095941;28;20024;-65
2021/06/27 06:51:42;;;;;;;14.40;3.20;;;;;;;33.67;41.43;96374.91;5095889;28;20016;-64
2021/06/27 06:54:07;;;;;;;16.23;2.55;;;;;;;33.85;40.63;96368.84;5095343;28;20020;-62
2021/06/27 06:56:33;;;;;;;9.23;2.00;;;;;;;34.12;40.26;96365.22;5095716;28;20429;-64
2021/06/27 06:58:59;;;;;;;8.13;2.55;;;;;;;34.34;41.27;96376.66;5094471;28;20056;-64
2021/06/27 07:01:24;;;;;;;5.82;2.03;;;;;;;34.51;39.87;96368.88;5095636;28;20370;-62
2021/06/27 07:03:50;;;;;;;10.30;2.15;;;;;;;34.61;37.95;96373.03;5095042;28;20104;-64
2021/06/27 07:06:18;;;;;;;6.18;1.95;;;;;;;34.61;40.05;96373.84;5095537;28;20024;-65
2021/06/27 07:08:43;;;;;;;7.70;2.58;;;;;;;34.66;39.46;96378.66;5094939;28;20432;-63
2021/06/27 07:11:09;;;;;;;6.13;2.38;;;;;;;34.74;37.79;96375.69;5094954;28;20032;-63
2021/06/27 07:13:35;;;;;;;8.85;1.98;;;;;;;34.88;38.74;96376.44;5095025;28;20032;-64
2021/06/27 07:16:02;;;;;;;13.15;2.60;;;;;;;34.82;36.45;96373.78;5094705;28;20045;-63
2021/06/27 07:18:27;;;;;;;11.88;2.17;;;;;;;34.72;37.57;96377.78;5095390;28;20042;-65
2021/06/27 07:20:53;;;;;;;5.75;2.20;;;;;;;34.85;37.79;96379.59;5093275;28;20028;-65
2021/06/27 07:23:18;;;;;;;5.75;2.28;;;;;;;34.89;37.49;96380.00;5103719;28;20472;-66
2021/06/27 07:25:44;;;;;;;5.03;2.42;;;;;;;35.11;37.26;96385.91;5104651;28;20048;-64
2021/06/27 07:28:10;;;;;;;13.05;2.13;;;;;;;35.35;36.77;96393.50;5105403;28;20496;-62
2021/06/27 07:30:35;;;;;;;10.23;1.92;;;;;;;35.37;34.82;96386.81;5094392;28;20041;-64
2021/06/27 07:33:01;;;;;;;10.27;2.10;;;;;;;35.35;38.33;96391.63;5100935;28;20027;-64
2021/06/27 07:35:27;;;;;;;11.50;2.42;;;;;;;35.46;38.13;96395.53;5106056;28;20024;-66
2021/06/27 07:37:52;;;;;;;10.63;2.65;;;;;;;35.47;40.00;96399.06;5114340;28;20027;-64
2021/06/27 07:40:19;;;;;;;10.38;2.78;;;;;;;35.35;34.73;96394.34;5096393;28;20028;-62
2021/06/27 07:42:45;;;;;;;14.85;2.97;;;;;;;34.81;34.65;96401.97;5094799;28;20106;-64
2021/06/27 07:45:11;;;;;;;5.15;2.38;;;;;;;34.85;38.75;96397.78;5093477;28;20166;-63
2021/06/27 07:47:37;;;;;;;8.35;2.30;;;;;;;34.72;37.70;96402.22;5094818;28;20385;-63
2021/06/27 07:50:05;;;;;;;9.07;2.20;;;;;;;34.85;38.52;96401.31;5094172;28;20035;-65
2021/06/27 07:52:31;;;;;;;11.05;2.53;;;;;;;34.97;38.93;96398.75;5103078;28;20024;-64
2021/06/27 07:54:56;;;;;;;6.05;2.10;;;;;;;35.07;38.35;96409.16;5106508;28;20030;-66
2021/06/27 07:57:22;;;;;;;11.25;1.80;;;;;;;34.82;36.73;96406.38;5114851;28;20024;-66
2021/06/27 07:59:48;;;;;;;5.00;1.88;;;;;;;34.21;37.73;96403.84;5112753;28;20027;-65
2021/06/27 08:02:14;;;;;;;9.63;2.67;;;;;;;34.35;40.33;96404.66;5074179;28;20051;-62
2021/06/27 08:04:39;;;;;;;9.55;2.20;;;;;;;34.23;40.79;96404.47;5074324;28;20120;-65
2021/06/27 08:07:05;;;;;;;4.13;1.63;;;;;;;34.28;37.96;96399.25;5073289;28;20024;-67
2021/06/27 08:09:31;;;;;;;7.95;2.30;;;;;;;34.24;39.17;96404.25;5085823;28;20032;-65
2021/06/27 08:11:56;;;;;;;8.82;2.33;;;;;;;33.92;39.33;96406.81;5105976;28;20036;-63
2021/06/27 08:14:22;;;;;;;10.23;2.22;;;;;;;33.74;38.28;96402.03;5094080;28;20104;-63
2021/06/27 08:16:48;;;;;;;8.23;2.13;;;;;;;33.09;41.68;96400.72;5092882;28;20036;-62
2021/06/27 08:19:14;;;;;;;8.05;2.78;;;;;;;32.48;39.95;96398.63;5098309;28;20031;-65
2021/06/27 08:21:40;;;;;;;9.40;2.50;;;;;;;32.18;41.08;96396.19;5093597;28;20028;-65
2021/06/27 08:24:06;;;;;;;11.32;2.60;;;;;;;31.95;40.02;96399.16;5093892;28;20132;-65
2021/06/27 08:26:32;;;;;;;9.07;2.42;;;;;;;31.76;40.60;96399.63;5094144;28;20056;-65
2021/06/27 08:28:58;;;;;;;8.75;2.10;;;;;;;31.80;44.57;96402.78;5093483;28;20497;-65
2021/06/27 08:31:24;;;;;;;8.70;2.28;;;;;;;31.91;44.26;96396.00;5091231;28;20557;-63
2021/06/27 08:33:50;;;;;;;7.05;2.10;;;;;;;31.70;42.04;96394.19;5107115;28;20035;-65
2021/06/27 08:36:17;;;;;;;9.05;2.78;;;;;;;31.50;45.49;96401.09;5092292;28;20024;-64
2021/06/27 08:38:43;;;;;;;5.97;2.35;;;;;;;31.39;41.16;96404.31;5092233;28;20035;-65
2021/06/27 08:41:08;;;;;;;8.13;2.72;;;;;;;31.54;42.34;96403.41;5091225;28;20028;-64
2021/06/27 08:43:35;;;;;;;9.15;2.55;;;;;;;31.75;44.50;96399.81;5092114;28;20028;-64
2021/06/27 08:46:10;;;;;;;16.30;2.67;;;;;;;32.25;43.47;96401.63;5093823;28;20024;-63
2021/06/27 08:48:38;;;;;;;5.72;2.10;;;;;;;32.79;40.03;96396.47;5093875;28;20454;-62
2021/06/27 08:51:06;;;;;;;9.43;2.35;;;;;;;33.01;39.11;96401.72;5093554;28;20048;-65
2021/06/27 08:53:36;;;;;;;5.15;2.05;;;;;;;33.10;41.94;96411.34;5093189;28;20028;-63
2021/06/27 08:56:08;;;;;;;11.38;2.28;;;;;;;33.40;41.07;96412.84;5093675;28;20039;-65
2021/06/27 08:58:41;;;;;;;10.32;2.63;;;;;;;33.72;41.81;96410.38;5093619;28;20480;-64
2021/06/27 09:01:13;;;;;;;6.03;1.98;;;;;;;33.87;41.65;96407.44;5093277;28;20035;-62
2021/06/27 09:03:38;;;;;;;7.15;2.28;;;;;;;34.03;42.07;96410.75;5093330;28;20496;-64
2021/06/27 09:06:05;;;;;;;8.23;2.65;;;;;;;33.45;37.10;96402.22;5093457;28;20020;-64
2021/06/27 09:08:30;;;;;;;6.50;2.40;;;;;;;32.61;38.88;96403.28;5093029;28;20077;-65
2021/06/27 09:11:12;;;;;;;11.38;2.85;;;;;;;32.28;40.62;96407.47;5093333;28;20027;-62
2021/06/27 09:13:40;;;;;;;8.95;2.90;;;;;;;32.33;39.91;96403.34;5093364;28;20020;-62
2021/06/27 09:16:22;;;;;;;12.68;2.53;;;;;;;32.33;44.17;96406.88;5093274;28;20023;-63
2021/06/27 09:18:48;;;;;;;7.07;2.58;;;;;;;32.25;41.31;96402.47;5092943;28;20457;-62
2021/06/27 09:21:14;;;;;;;13.05;2.88;;;;;;;32.51;40.03;96405.53;5093129;28;20036;-64
2021/06/27 09:23:44;;;;;;;10.75;2.58;;;;;;;32.45;39.61;96403.59;5093200;28;20028;-65
2021/06/27 09:26:13;;;;;;;7.72;2.20;;;;;;;31.93;41.37;96407.47;5093147;28;20490;-62
2021/06/27 09:28:42;;;;;;;10.55;2.45;;;;;;;31.90;44.90;96400.56;5093078;28;20035;-65
2021/06/27 09:31:07;;;;;;;7.22;2.10;;;;;;;32.07;43.59;96403.00;5092899;28;20036;-64
2021/06/27 09:33:33;;;;;;;8.40;2.55;;;;;;;32.47;43.99;96404.25;5092859;28;20024;-64
2021/06/27 09:36:11;;;;;;;4.82;2.08;;;;;;;32.70;42.67;96403.09;5092426;28;20031;-65
2021/06/27 09:38:51;;;;;;;11.18;2.53;;;;;;;32.87;40.33;96401.69;5092720;28;20173;-64
2021/06/27 09:41:23;;;;;;;9.63;2.47;;;;;;;32.80;42.28;96394.59;5093001;28;20474;-66
2021/06/27 09:44:02;;;;;;;14.65;2.78;;;;;;;32.73;42.63;96389.16;5092443;28;20036;-65
2021/06/27 09:46:47;;;;;;;12.20;2.40;;;;;;;32.61;41.67;96397.88;5092823;28;20032;-64
2021/06/27 09:49:16;;;;;;;10.60;2.25;;;;;;;32.70;39.89;96395.81;5092703;28;20038;-61
2021/06/27 09:51:51;;;;;;;13.27;3.15;;;;;;;32.54;39.73;96391.59;5095142;28;20031;-63
2021/06/27 09:54:25;;;;;;;4.97;2.30;;;;;;;32.38;41.84;96396.28;5096882;28;20377;-63
2021/06/27 09:56:52;;;;;;;10.95;2.47;;;;;;;32.20;40.92;96388.69;5096900;28;20470;-66
2021/06/27 09:59:20;;;;;;;6.57;2.15;;;;;;;32.08;43.10;96401.13;5096477;28;20020;-63
2021/06/27 10:01:47;;;;;;;11.82;2.92;;;;;;;32.05;44.02;96398.81;5096883;28;20043;-65
2021/06/27 10:04:15;;;;;;;8.10;2.60;;;;;;;31.83;39.80;96390.72;5096862;28;20028;-66
2021/06/27 10:06:50;;;;;;;5.80;2.33;;;;;;;31.65;40.36;96395.63;5096798;28;20020;-64
2021/06/27 10:09:21;;;;;;;11.32;2.70;;;;;;;31.39;41.67;96385.41;5096254;28;20486;-66
2021/06/27 10:12:16;;;;;;;12.80;3.47;;;;;;;31.40;45.01;96393.31;5096601;28;20069;-62
2021/06/27 10:14:48;;;;;;;11.02;2.50;;;;;;;31.39;44.91;96391.66;5074531;28;20080;-63
2021/06/27 10:17:15;;;;;;;12.75;2.45;;;;;;;31.45;46.65;96381.94;5076311;28;20097;-61
2021/06/27 10:19:40;;;;;;;9.10;2.83;;;;;;;31.47;47.60;96382.59;5094778;28;20474;-65
2021/06/27 10:22:07;;;;;;;12.35;2.97;;;;;;;31.50;45.75;96390.31;5096509;28;20027;-61
2021/06/27 10:24:33;;;;;;;10.32;2.55;;;;;;;31.62;44.37;96392.47;5096188;28;20044;-65
2021/06/27 10:26:59;;;;;;;7.65;2.47;;;;;;;31.08;43.86;96386.56;5096373;28;20027;-63
2021/06/27 10:29:25;;;;;;;14.32;2.80;;;;;;;31.07;46.81;96390.28;5095856;28;20397;-64
2021/06/27 10:31:53;;;;;;;9.10;2.10;;;;;;;30.70;44.71;96385.72;5095824;28;20031;-64
2021/06/27 10:34:21;;;;;;;11.85;3.33;;;;;;;30.88;47.57;96389.91;5095925;28;20473;-62
2021/06/27 10:36:53;;;;;;;12.27;2.80;;;;;;;31.21;50.11;96383.16;5096255;28;20026;-62
2021/06/27 10:39:20;;;;;;;8.13;2.25;;;;;;;31.49;47.75;96377.00;5096104;28;20462;-64
2021/06/27 10:42:00;;;;;;;8.10;2.15;;;;;;;31.57;43.17;96371.44;5095483;28;20028;-63
2021/06/27 10:44:38;;;;;;;20.97;2.57;;;;;;;31.62;46.04;96368.13;5096088;28;20162;-64
2021/06/27 10:47:05;;;;;;;11.25;3.00;;;;;;;31.77;45.26;96370.75;5096034;28;20346;-64
2021/06/27 10:49:33;;;;;;;8.88;2.05;;;;;;;31.86;44.98;96364.16;5096023;28;20020;-65
2021/06/27 10:52:12;;;;;;;8.82;2.60;;;;;;;31.93;43.26;96352.59;5095517;28;20040;-63
2021/06/27 10:55:14;;;;;;;7.45;2.67;;;;;;;32.09;41.41;96351.41;5095273;28;20034;-64
2021/06/27 10:58:15;;;;;;;7.38;2.40;;;;;;;31.92;41.85;96351.72;5095647;28;20466;-66
2021/06/27 11:00:53;;;;;;;10.38;2.80;;;;;;;31.85;41.14;96358.94;5087401;28;20044;-61
2021/06/27 11:03:41;;;;;;;10.63;2.92;;;;;;;31.90;41.42;96354.59;5094854;28;20036;-65
2021/06/27 11:06:26;;;;;;;8.38;2.88;;;;;;;31.90;44.54;96359.16;5095583;28;20067;-66
2021/06/27 11:08:56;;;;;;;12.35;2.13;;;;;;;31.90;43.53;96361.88;5094225;28;20470;-64
2021/06/27 11:11:24;;;;;;;7.20;2.25;;;;;;;31.92;43.08;96357.13;5095081;28;20042;-65
2021/06/27 11:14:08;;;;;;;6.82;2.30;;;;;;;31.99;42.26;96354.50;5095441;28;20043;-64
2021/06/27 11:16:56;;;;;;;7.82;3.17;;;;;;;32.04;44.88;96360.13;5095346;28;20020;-62
2021/06/27 11:19:36;;;;;;;8.82;2.55;;;;;;;32.03;44.24;96355.75;5095395;28;20040;-63
2021/06/27 11:22:12;;;;;;;7.53;2.72;;;;;;;32.07;46.16;96361.56;5094429;28;20028;-64
2021/06/27 11:24:37;;;;;;;7.05;2.90;;;;;;;32.04;47.21;96362.81;5095222;28;20127;-63
2021/06/27 11:27:03;;;;;;;11.63;3.03;;;;;;;31.99;43.26;96362.59;5095206;28;20055;-65
2021/06/27 11:29:29;;;;;;;8.48;2.85;;;;;;;31.95;42.74;96389.19;5095140;28;20058;-65
2021/06/27 11:32:04;;;;;;;9.00;2.70;;;;;;;31.58;42.80;96408.25;5094684;28;20068;-64
2021/06/27 11:34:33;;;;;;;10.77;2.70;;;;;;;30.64;42.87;96395.44;5094304;28;20036;-65